createdAt,value
2023-05-08T00:00:42.099Z,76.02
2023-05-08T00:03:45.088Z,76.02
2023-05-08T00:06:48.410Z,76.53
2023-05-08T00:09:51.209Z,76.16
2023-05-08T00:12:53.804Z,75.50
2023-05-08T00:15:56.282Z,76.50
2023-05-08T00:18:59.694Z,76.36
2023-05-08T00:22:02.196Z,76.17
2023-05-08T00:25:05.824Z,76.42
2023-05-08T00:28:08.283Z,75.39
2023-05-08T00:31:11.876Z,75.71
2023-05-08T00:34:14.299Z,76.41
2023-05-08T00:37:17.262Z,75.84
2023-05-08T00:40:19.826Z,76.22
2023-05-08T00:43:25.872Z,76.71
2023-05-08T00:46:28.519Z,76.79
2023-05-08T00:49:31.396Z,77.38
2023-05-08T00:52:34.280Z,77.27
2023-05-08T00:55:37.833Z,78.19
2023-05-08T00:58:41.967Z,77.95
2023-05-08T01:01:45.096Z,77.30
2023-05-08T01:04:48.517Z,77.76
2023-05-08T01:07:51.254Z,77.64
2023-05-08T01:11:28.892Z,77.37
2023-05-08T01:14:52.370Z,77.46
2023-05-08T01:18:17.299Z,77.35
2023-05-08T01:21:43.341Z,78.21
2023-05-08T01:24:48.893Z,77.52
2023-05-08T01:28:32.374Z,77.52
2023-05-08T01:32:14.183Z,77.69
2023-05-08T01:35:41.570Z,76.67
2023-05-08T01:38:56.107Z,77.81
2023-05-08T01:42:28.984Z,77.96
2023-05-08T01:45:35.959Z,77.05
2023-05-08T01:49:12.618Z,78.62
2023-05-08T01:52:21.400Z,78.24
2023-05-08T01:55:34.459Z,78.43
2023-05-08T01:58:39.241Z,78.65
2023-05-08T02:01:44.976Z,78.98
2023-05-08T02:04:49.496Z,79.24
2023-05-08T02:07:52.864Z,79.67
2023-05-08T02:10:56.994Z,79.81
2023-05-08T02:14:01.740Z,79.03
2023-05-08T02:17:06.407Z,79.92
2023-05-08T02:20:14.870Z,80.04
2023-05-08T02:23:19.484Z,79.59
2023-05-08T02:26:23.404Z,79.73
2023-05-08T02:29:26.394Z,79.62
2023-05-08T02:32:30.693Z,79.97
2023-05-08T02:35:34.043Z,79.43
2023-05-08T02:38:41.401Z,80.23
2023-05-08T02:41:44.595Z,80.73
2023-05-08T02:44:47.246Z,80.51
2023-05-08T02:48:12.230Z,80.84
2023-05-08T02:51:23.824Z,80.67
2023-05-08T02:54:46.189Z,80.75
2023-05-08T02:58:24.669Z,80.62
2023-05-08T03:01:36.280Z,80.73
2023-05-08T03:04:51.532Z,80.64
2023-05-08T03:07:57.483Z,80.79
2023-05-08T03:11:07.875Z,81.34
2023-05-08T03:14:12.700Z,81.01
2023-05-08T03:17:18.994Z,81.14
2023-05-08T03:20:24.937Z,81.04
2023-05-08T03:23:30.605Z,80.94
2023-05-08T03:26:33.287Z,80.97
2023-05-08T03:29:38.452Z,81.16
2023-05-08T03:32:42.513Z,80.27
2023-05-08T03:35:46.393Z,80.19
2023-05-08T03:38:49.223Z,79.90
2023-05-08T03:41:52.124Z,79.97
2023-05-08T03:44:54.887Z,79.92
2023-05-08T03:48:00.240Z,79.50
2023-05-08T03:51:04.389Z,79.42
2023-05-08T03:54:08.582Z,79.15
2023-05-08T03:57:11.674Z,79.20
2023-05-08T04:00:54.010Z,78.65
2023-05-08T04:04:18.907Z,78.71
2023-05-08T04:07:31.194Z,79.02
2023-05-08T04:10:46.417Z,77.75
2023-05-08T04:13:54.177Z,77.75
2023-05-08T04:17:02.990Z,77.49
2023-05-08T04:20:08.976Z,77.53
2023-05-08T04:23:17.172Z,76.41
2023-05-08T04:26:20.250Z,76.30
2023-05-08T04:29:24.848Z,76.24
2023-05-08T04:32:28.964Z,75.76
2023-05-08T04:35:33.938Z,75.28
2023-05-08T04:38:37.817Z,75.85
2023-05-08T04:41:41.273Z,75.42
2023-05-08T04:44:43.778Z,75.57
2023-05-08T04:47:46.443Z,75.74
2023-05-08T04:50:48.877Z,74.46
2023-05-08T04:53:51.448Z,74.62
2023-05-08T04:56:54.233Z,74.98
2023-05-08T04:59:56.682Z,74.08
2023-05-08T05:03:00.070Z,73.74
2023-05-08T05:06:02.663Z,74.46
2023-05-08T05:09:05.431Z,73.86
2023-05-08T05:12:08.704Z,74.01
2023-05-08T05:15:11.993Z,72.73
2023-05-08T05:18:15.880Z,72.45
2023-05-08T05:21:18.983Z,72.19
2023-05-08T05:24:22.229Z,72.23
2023-05-08T05:27:24.791Z,71.41
2023-05-08T05:30:28.034Z,71.19
2023-05-08T05:33:30.562Z,70.53
2023-05-08T05:36:33.095Z,70.67
2023-05-08T05:39:37.789Z,70.23
2023-05-08T05:42:41.217Z,67.95
2023-05-08T05:45:43.837Z,68.15
2023-05-08T05:48:46.284Z,65.40
2023-05-08T05:51:49.228Z,63.25
2023-05-08T05:54:52.578Z,58.63
2023-05-08T05:57:55.831Z,57.16
2023-05-08T06:01:01.082Z,55.25
2023-05-08T06:04:04.478Z,52.29
2023-05-08T06:07:07.041Z,52.90
2023-05-08T06:10:09.869Z,51.81
2023-05-08T06:13:13.008Z,49.09
2023-05-08T06:16:16.175Z,47.72
2023-05-08T06:19:18.686Z,48.92
2023-05-08T06:22:24.422Z,49.52
2023-05-08T06:25:28.220Z,46.80
2023-05-08T06:28:30.946Z,46.91
2023-05-08T06:31:33.561Z,46.37
2023-05-08T06:34:36.081Z,45.35
2023-05-08T06:37:38.582Z,43.30
2023-05-08T06:40:44.858Z,42.41
2023-05-08T06:43:47.371Z,42.43
2023-05-08T06:46:49.912Z,41.66
2023-05-08T06:49:54.025Z,41.41
2023-05-08T06:52:56.526Z,41.43
2023-05-08T06:55:59.280Z,40.13
2023-05-08T06:59:08.285Z,41.01
2023-05-08T07:02:12.519Z,40.55
2023-05-08T07:05:15.614Z,40.71
2023-05-08T07:08:18.229Z,40.64
2023-05-08T07:11:20.785Z,40.68
2023-05-08T07:14:23.253Z,39.34
2023-05-08T07:17:25.740Z,38.60
2023-05-08T07:20:28.416Z,39.02
2023-05-08T07:23:31.657Z,37.87
2023-05-08T07:26:34.110Z,38.21
2023-05-08T07:29:36.668Z,39.05
2023-05-08T07:32:39.506Z,38.30
2023-05-08T07:35:42.306Z,38.47
2023-05-08T07:38:45.668Z,37.36
2023-05-08T07:41:49.921Z,37.92
2023-05-08T07:44:55.186Z,38.79
2023-05-08T07:47:59.024Z,37.41
2023-05-08T07:51:01.620Z,37.26
2023-05-08T07:54:04.120Z,36.16
2023-05-08T07:57:06.635Z,35.81
2023-05-08T08:00:14.668Z,36.44
2023-05-08T08:03:17.460Z,36.76
2023-05-08T08:06:20.597Z,37.04
2023-05-08T08:09:23.061Z,35.66
2023-05-08T08:12:25.796Z,35.42
2023-05-08T08:15:28.960Z,33.83
2023-05-08T08:18:35.689Z,34.11
2023-05-08T08:21:47.177Z,35.08
2023-05-08T08:24:49.684Z,34.38
2023-05-08T08:27:52.129Z,34.73
2023-05-08T08:30:54.627Z,34.14
2023-05-08T08:33:57.579Z,33.69
2023-05-08T08:37:00.060Z,34.13
2023-05-08T08:40:02.576Z,33.63
2023-05-08T08:43:05.857Z,32.92
2023-05-08T08:46:14.626Z,33.70
2023-05-08T08:49:31.874Z,32.09
2023-05-08T08:52:49.340Z,32.91
2023-05-08T08:55:55.759Z,32.21
2023-05-08T08:59:00.289Z,31.61
2023-05-08T09:02:11.723Z,31.94
2023-05-08T09:05:14.629Z,32.16
2023-05-08T09:08:18.797Z,32.00
2023-05-08T09:11:21.543Z,31.85
2023-05-08T09:14:26.737Z,33.11
2023-05-08T09:17:29.490Z,31.15
2023-05-08T09:20:32.080Z,31.77
2023-05-08T09:23:37.381Z,32.21
2023-05-08T09:26:41.506Z,33.15
2023-05-08T09:29:59.579Z,32.69
2023-05-08T09:33:02.949Z,33.90
2023-05-08T09:36:05.929Z,32.65
2023-05-08T09:39:12.706Z,32.75
2023-05-08T09:42:15.553Z,32.25
2023-05-08T09:45:32.315Z,32.22
2023-05-08T09:48:38.516Z,33.18
2023-05-08T09:51:53.116Z,32.45
2023-05-08T09:55:03.395Z,31.65
2023-05-08T09:58:05.782Z,31.21
2023-05-08T10:01:27.338Z,33.26
2023-05-08T10:04:37.256Z,30.28
2023-05-08T10:07:39.672Z,31.02
2023-05-08T10:10:42.789Z,31.77
2023-05-08T10:13:46.451Z,31.65
2023-05-08T10:16:52.784Z,33.53
2023-05-08T10:20:00.372Z,30.39
2023-05-08T10:23:04.201Z,30.86
2023-05-08T10:26:12.783Z,30.90
2023-05-08T10:29:25.169Z,30.79
2023-05-08T10:32:31.572Z,28.91
2023-05-08T10:35:34.778Z,31.24
2023-05-08T10:38:38.193Z,31.15
2023-05-08T10:41:41.667Z,31.08
2023-05-08T10:44:44.657Z,30.76
2023-05-08T10:48:34.450Z,30.34
2023-05-08T10:52:21.511Z,30.86
2023-05-08T10:55:31.831Z,32.37
2023-05-08T10:58:37.271Z,31.66
2023-05-08T11:01:39.905Z,32.46
2023-05-08T11:04:43.927Z,31.22
2023-05-08T11:07:56.869Z,31.25
2023-05-08T11:11:02.145Z,30.93
2023-05-08T11:14:07.467Z,32.87
2023-05-08T11:17:10.582Z,31.82
2023-05-08T11:20:13.312Z,32.75
2023-05-08T11:23:29.639Z,33.59
2023-05-08T11:26:41.131Z,32.54
2023-05-08T11:29:45.105Z,33.38
2023-05-08T11:33:18.981Z,34.45
2023-05-08T11:36:23.005Z,32.39
2023-05-08T11:40:22.687Z,32.53
2023-05-08T11:43:34.099Z,33.96
2023-05-08T11:47:03.626Z,32.46
2023-05-08T11:50:07.680Z,33.07
2023-05-08T11:53:10.133Z,32.86
2023-05-08T11:56:12.796Z,32.61
2023-05-08T11:59:15.784Z,32.54
2023-05-08T12:02:18.558Z,32.34
2023-05-08T12:05:27.511Z,33.80
2023-05-08T12:08:30.079Z,31.63
2023-05-08T12:11:32.824Z,33.48
2023-05-08T12:14:35.237Z,35.67
2023-05-08T12:17:38.301Z,33.12
2023-05-08T12:20:40.965Z,34.08
2023-05-08T12:23:43.968Z,34.76
2023-05-08T12:26:46.448Z,34.22
2023-05-08T12:29:48.837Z,33.71
2023-05-08T12:32:51.411Z,35.22
2023-05-08T12:35:54.668Z,33.45
2023-05-08T12:39:16.316Z,32.47
2023-05-08T12:42:18.663Z,34.06
2023-05-08T12:45:24.213Z,33.82
2023-05-08T12:48:26.867Z,34.38
2023-05-08T12:51:31.086Z,35.74
2023-05-08T12:54:34.788Z,34.64
2023-05-08T12:57:37.182Z,35.87
2023-05-08T13:00:44.805Z,35.31
2023-05-08T13:04:01.779Z,35.79
2023-05-08T13:07:05.490Z,36.24
2023-05-08T13:10:08.932Z,34.98
2023-05-08T13:13:11.570Z,35.96
2023-05-08T13:16:14.037Z,34.53
2023-05-08T13:19:16.767Z,36.46
2023-05-08T13:22:22.992Z,34.60
2023-05-08T13:25:25.408Z,35.43
2023-05-08T13:28:27.827Z,34.83
2023-05-08T13:31:30.745Z,36.44
2023-05-08T13:34:33.468Z,35.35
2023-05-08T13:37:36.474Z,35.02
2023-05-08T13:40:39.116Z,34.89
2023-05-08T13:43:42.479Z,34.65
2023-05-08T13:46:44.850Z,34.21
2023-05-08T13:49:48.021Z,34.46
2023-05-08T13:52:52.316Z,34.28
2023-05-08T13:55:57.333Z,34.63
2023-05-08T13:59:00.206Z,35.72
2023-05-08T14:02:02.983Z,35.19
2023-05-08T14:05:08.178Z,35.80
2023-05-08T14:08:11.368Z,35.59
2023-05-08T14:11:13.824Z,36.37
2023-05-08T14:14:16.523Z,37.79
2023-05-08T14:17:18.983Z,37.63
2023-05-08T14:20:21.479Z,38.36
2023-05-08T14:23:24.005Z,39.23
2023-05-08T14:26:26.739Z,39.20
2023-05-08T14:29:29.802Z,40.50
2023-05-08T14:32:32.289Z,39.61
2023-05-08T14:35:34.880Z,40.20
2023-05-08T14:38:37.373Z,40.60
2023-05-08T14:41:40.478Z,38.50
2023-05-08T14:44:43.038Z,41.54
2023-05-08T14:47:45.552Z,40.30
2023-05-08T14:50:48.079Z,39.92
2023-05-08T14:53:50.977Z,41.30
2023-05-08T14:56:53.828Z,40.27
2023-05-08T14:59:56.853Z,41.00
2023-05-08T15:02:59.378Z,40.77
2023-05-08T15:06:02.215Z,41.43
2023-05-08T15:09:04.537Z,41.13
2023-05-08T15:12:07.119Z,42.45
2023-05-08T15:15:09.892Z,43.29
2023-05-08T15:18:12.231Z,43.57
2023-05-08T15:21:14.661Z,42.67
2023-05-08T15:24:17.223Z,43.25
2023-05-08T15:27:19.636Z,41.64
2023-05-08T15:30:22.292Z,42.20
2023-05-08T15:33:24.899Z,42.38
2023-05-08T15:36:28.510Z,43.53
2023-05-08T15:39:30.972Z,43.32
2023-05-08T15:42:33.489Z,42.59
2023-05-08T15:45:35.915Z,43.38
2023-05-08T15:48:38.518Z,42.82
2023-05-08T15:51:40.986Z,44.32
2023-05-08T15:54:43.451Z,43.93
2023-05-08T15:57:45.959Z,43.69
2023-05-08T16:00:48.402Z,44.15
2023-05-08T16:03:50.843Z,45.03
2023-05-08T16:06:53.314Z,44.00
2023-05-08T16:09:55.746Z,43.79
2023-05-08T16:12:58.239Z,45.07
2023-05-08T16:16:05.241Z,44.81
2023-05-08T16:19:08.199Z,44.71
2023-05-08T16:22:10.674Z,45.64
2023-05-08T16:25:13.415Z,45.32
2023-05-08T16:28:16.195Z,44.52
2023-05-08T16:31:18.637Z,46.17
2023-05-08T16:34:21.558Z,46.23
2023-05-08T16:37:23.979Z,47.38
2023-05-08T16:40:26.332Z,46.95
2023-05-08T16:43:28.865Z,48.43
2023-05-08T16:46:31.392Z,47.47
2023-05-08T16:49:33.953Z,46.77
2023-05-08T16:52:36.441Z,46.42
2023-05-08T16:55:38.907Z,46.71
2023-05-08T16:58:43.250Z,46.94
2023-05-08T17:01:45.751Z,46.77
2023-05-08T17:04:49.379Z,46.78
2023-05-08T17:07:51.902Z,47.01
2023-05-08T17:10:54.308Z,46.99
2023-05-08T17:13:57.060Z,47.53
2023-05-08T17:16:59.773Z,48.53
2023-05-08T17:20:02.267Z,48.50
2023-05-08T17:23:04.747Z,49.23
2023-05-08T17:26:07.446Z,48.52
2023-05-08T17:29:09.852Z,49.22
2023-05-08T17:32:12.635Z,49.22
2023-05-08T17:35:15.160Z,50.08
2023-05-08T17:38:17.700Z,50.15
2023-05-08T17:41:20.666Z,49.76
2023-05-08T17:44:23.464Z,50.44
2023-05-08T17:47:26.075Z,50.43
2023-05-08T17:50:28.610Z,50.67
2023-05-08T17:53:32.227Z,51.04
2023-05-08T17:56:34.666Z,52.11
2023-05-08T17:59:36.999Z,51.83
2023-05-08T18:02:40.048Z,52.31
2023-05-08T18:05:42.646Z,53.12
2023-05-08T18:08:46.287Z,52.92
2023-05-08T18:11:48.703Z,53.34
2023-05-08T18:14:51.216Z,52.78
2023-05-08T18:17:53.778Z,53.99
2023-05-08T18:20:56.386Z,54.19
2023-05-08T18:23:58.911Z,54.26
2023-05-08T18:27:01.364Z,53.75
2023-05-08T18:30:04.384Z,54.04
2023-05-08T18:33:07.021Z,53.10
2023-05-08T18:36:10.296Z,53.89
2023-05-08T18:39:12.755Z,54.15
2023-05-08T18:42:15.415Z,54.15
2023-05-08T18:45:18.022Z,55.13
2023-05-08T18:48:20.765Z,54.36
2023-05-08T18:51:23.711Z,54.71
2023-05-08T18:54:27.043Z,55.13
2023-05-08T18:57:29.444Z,55.15
2023-05-08T19:00:33.228Z,54.94
2023-05-08T19:03:35.938Z,55.54
2023-05-08T19:06:38.450Z,55.75
2023-05-08T19:09:40.978Z,56.29
2023-05-08T19:12:44.333Z,56.53
2023-05-08T19:15:47.055Z,56.69
2023-05-08T19:18:50.773Z,56.95
2023-05-08T19:21:53.422Z,56.84
2023-05-08T19:24:56.167Z,57.22
2023-05-08T19:27:58.872Z,56.91
2023-05-08T19:31:01.669Z,56.76
2023-05-08T19:34:04.174Z,57.45
2023-05-08T19:37:06.569Z,57.63
2023-05-08T19:40:09.515Z,57.75
2023-05-08T19:43:12.176Z,58.10
2023-05-08T19:46:14.770Z,58.38
2023-05-08T19:49:17.671Z,58.63
2023-05-08T19:52:20.335Z,58.91
2023-05-08T19:55:22.873Z,58.65
2023-05-08T19:58:25.476Z,58.93
2023-05-08T20:01:27.980Z,58.74
2023-05-08T20:04:30.693Z,58.70
2023-05-08T20:07:33.778Z,59.50
2023-05-08T20:10:36.289Z,59.93
2023-05-08T20:13:39.287Z,59.60
2023-05-08T20:16:42.096Z,60.11
2023-05-08T20:19:44.727Z,59.64
2023-05-08T20:22:47.326Z,59.32
2023-05-08T20:25:49.711Z,60.39
2023-05-08T20:28:52.166Z,60.14
2023-05-08T20:31:54.678Z,60.58
2023-05-08T20:34:57.153Z,60.38
2023-05-08T20:37:59.640Z,60.40
2023-05-08T20:41:02.252Z,60.88
2023-05-08T20:44:04.706Z,61.29
2023-05-08T20:47:07.087Z,60.49
2023-05-08T20:50:09.762Z,61.53
2023-05-08T20:53:12.121Z,62.77
2023-05-08T20:56:18.675Z,62.33
2023-05-08T20:59:23.227Z,62.05
2023-05-08T21:02:25.831Z,62.49
2023-05-08T21:05:28.278Z,63.47
2023-05-08T21:08:30.683Z,63.67
2023-05-08T21:11:33.315Z,63.49
2023-05-08T21:14:36.641Z,64.66
2023-05-08T21:17:39.027Z,64.75
2023-05-08T21:20:45.144Z,64.44
2023-05-08T21:23:47.513Z,64.51
2023-05-08T21:26:49.908Z,65.03
2023-05-08T21:29:52.441Z,65.51
2023-05-08T21:32:54.940Z,65.23
2023-05-08T21:35:57.398Z,64.98
2023-05-08T21:38:59.816Z,64.78
2023-05-08T21:42:03.227Z,65.22
2023-05-08T21:45:06.076Z,65.40
2023-05-08T21:48:08.606Z,65.85
2023-05-08T21:51:11.021Z,67.19
2023-05-08T21:54:13.439Z,66.53
2023-05-08T21:57:15.983Z,66.76
2023-05-08T22:00:19.080Z,67.14
2023-05-08T22:03:24.086Z,66.01
2023-05-08T22:06:26.627Z,65.76
2023-05-08T22:09:29.001Z,65.89
2023-05-08T22:12:31.455Z,66.11
2023-05-08T22:15:34.121Z,66.53
2023-05-08T22:18:36.879Z,67.00
2023-05-08T22:21:40.816Z,67.37
2023-05-08T22:24:43.244Z,66.98
2023-05-08T22:27:46.071Z,67.25
2023-05-08T22:30:48.489Z,67.24
2023-05-08T22:33:50.894Z,66.44
2023-05-08T22:36:53.226Z,67.59
2023-05-08T22:39:55.657Z,66.73
2023-05-08T22:42:59.131Z,66.71
2023-05-08T22:46:01.942Z,67.03
2023-05-08T22:49:04.555Z,67.18
2023-05-08T22:52:08.116Z,67.40
2023-05-08T22:55:10.832Z,67.51
2023-05-08T22:58:13.510Z,68.35
2023-05-08T23:01:17.412Z,67.58
2023-05-08T23:04:20.161Z,68.04
2023-05-08T23:07:22.573Z,68.89
2023-05-08T23:10:25.037Z,67.36
2023-05-08T23:13:27.551Z,68.17
2023-05-08T23:16:30.216Z,67.37
2023-05-08T23:19:32.600Z,67.47
2023-05-08T23:22:35.085Z,67.85
2023-05-08T23:25:37.452Z,67.72
2023-05-08T23:28:39.880Z,67.77
2023-05-08T23:31:42.342Z,67.05
2023-05-08T23:34:44.934Z,68.28
2023-05-08T23:37:47.396Z,69.47
2023-05-08T23:40:50.261Z,68.13
2023-05-08T23:43:52.678Z,68.33
2023-05-08T23:46:55.058Z,69.27
2023-05-08T23:49:57.600Z,69.57
2023-05-08T23:53:00.065Z,69.71
2023-05-08T23:56:02.500Z,68.80
2023-05-08T23:59:04.956Z,68.82
